sensor_id;sensor_type;location;lat;lon;timestamp;P1;durP1;ratioP1;P2;durP2;ratioP2
46339;SDS011;47273;49.274;8.708;2022-09-09T03:32:33;16.02;;;14.85;;
46339;SDS011;47273;49.274;8.708;2022-09-09T03:34:59;14.98;;;13.73;;
46339;SDS011;47273;49.274;8.708;2022-09-09T03:37:25;17.17;;;15.98;;
46339;SDS011;47273;49.274;8.708;2022-09-09T03:39:51;17.88;;;16.48;;
46339;SDS011;47273;49.274;8.708;2022-09-09T03:42:19;18.70;;;17.08;;
46339;SDS011;47273;49.274;8.708;2022-09-09T03:44:45;18.00;;;16.77;;
46339;SDS011;47273;49.274;8.708;2022-09-09T03:47:18;17.40;;;16.30;;
46339;SDS011;47273;49.274;8.708;2022-09-09T03:49:46;17.35;;;15.77;;
46339;SDS011;47273;49.274;8.708;2022-09-09T03:52:13;16.55;;;15.30;;
46339;SDS011;47273;49.274;8.708;2022-09-09T03:54:39;16.58;;;15.50;;
46339;SDS011;47273;49.274;8.708;2022-09-09T03:57:07;16.10;;;15.00;;
46339;SDS011;47273;49.274;8.708;2022-09-09T03:59:34;16.00;;;15.00;;
46339;SDS011;47273;49.274;8.708;2022-09-09T04:02:06;15.93;;;14.93;;
46339;SDS011;47273;49.274;8.708;2022-09-09T04:04:34;16.73;;;15.43;;
46339;SDS011;47273;49.274;8.708;2022-09-09T04:07:00;16.30;;;15.20;;
46339;SDS011;47273;49.274;8.708;2022-09-09T04:09:31;16.60;;;15.30;;
46339;SDS011;47273;49.274;8.708;2022-09-09T04:11:58;16.30;;;15.02;;
46339;SDS011;47273;49.274;8.708;2022-09-09T04:14:24;18.23;;;15.63;;
46339;SDS011;47273;49.274;8.708;2022-09-09T04:16:52;16.58;;;15.32;;
46339;SDS011;47273;49.274;8.708;2022-09-09T04:19:18;16.02;;;15.02;;
46339;SDS011;47273;49.274;8.708;2022-09-09T04:21:44;16.23;;;15.13;;
46339;SDS011;47273;49.274;8.708;2022-09-09T04:24:09;16.35;;;14.88;;
46339;SDS011;47273;49.274;8.708;2022-09-09T04:26:35;16.67;;;14.93;;
46339;SDS011;47273;49.274;8.708;2022-09-09T04:29:02;15.85;;;14.80;;
46339;SDS011;47273;49.274;8.708;2022-09-09T04:31:28;15.63;;;14.52;;
46339;SDS011;47273;49.274;8.708;2022-09-09T04:33:54;16.83;;;15.43;;
46339;SDS011;47273;49.274;8.708;2022-09-09T04:36:22;16.52;;;15.32;;
46339;SDS011;47273;49.274;8.708;2022-09-09T04:38:48;16.23;;;15.13;;
46339;SDS011;47273;49.274;8.708;2022-09-09T04:41:14;16.25;;;15.15;;
46339;SDS011;47273;49.274;8.708;2022-09-09T04:43:41;17.60;;;16.35;;
46339;SDS011;47273;49.274;8.708;2022-09-09T04:46:07;16.60;;;15.50;;
46339;SDS011;47273;49.274;8.708;2022-09-09T04:48:33;15.90;;;14.82;;
46339;SDS011;47273;49.274;8.708;2022-09-09T04:51:00;15.80;;;14.75;;
46339;SDS011;47273;49.274;8.708;2022-09-09T04:53:27;16.17;;;14.80;;
46339;SDS011;47273;49.274;8.708;2022-09-09T04:56:00;15.35;;;14.30;;
46339;SDS011;47273;49.274;8.708;2022-09-09T04:58:29;16.33;;;14.55;;
46339;SDS011;47273;49.274;8.708;2022-09-09T05:01:02;15.13;;;14.20;;
46339;SDS011;47273;49.274;8.708;2022-09-09T05:03:38;15.93;;;14.63;;
46339;SDS011;47273;49.274;8.708;2022-09-09T05:08:29;15.80;;;14.73;;
46339;SDS011;47273;49.274;8.708;2022-09-09T05:10:55;16.10;;;14.88;;
46339;SDS011;47273;49.274;8.708;2022-09-09T05:13:21;16.30;;;14.90;;
46339;SDS011;47273;49.274;8.708;2022-09-09T05:15:54;15.95;;;14.93;;
46339;SDS011;47273;49.274;8.708;2022-09-09T05:18:20;16.05;;;15.05;;
46339;SDS011;47273;49.274;8.708;2022-09-09T05:20:47;16.05;;;14.80;;
46339;SDS011;47273;49.274;8.708;2022-09-09T05:23:16;15.65;;;14.65;;
46339;SDS011;47273;49.274;8.708;2022-09-09T05:25:42;15.98;;;14.68;;
46339;SDS011;47273;49.274;8.708;2022-09-09T05:28:08;15.60;;;14.50;;
46339;SDS011;47273;49.274;8.708;2022-09-09T05:30:34;15.38;;;14.23;;
46339;SDS011;47273;49.274;8.708;2022-09-09T05:32:59;14.93;;;14.02;;
46339;SDS011;47273;49.274;8.708;2022-09-09T05:35:25;16.60;;;15.30;;
46339;SDS011;47273;49.274;8.708;2022-09-09T05:37:51;15.52;;;14.52;;
46339;SDS011;47273;49.274;8.708;2022-09-09T05:40:20;16.17;;;15.07;;
46339;SDS011;47273;49.274;8.708;2022-09-09T05:42:46;16.35;;;15.30;;
46339;SDS011;47273;49.274;8.708;2022-09-09T05:45:12;16.63;;;15.38;;
46339;SDS011;47273;49.274;8.708;2022-09-09T05:47:37;16.38;;;15.25;;
46339;SDS011;47273;49.274;8.708;2022-09-09T05:50:03;16.55;;;15.02;;
46339;SDS011;47273;49.274;8.708;2022-09-09T05:52:29;16.80;;;15.70;;
46339;SDS011;47273;49.274;8.708;2022-09-09T05:54:55;17.00;;;15.68;;
46339;SDS011;47273;49.274;8.708;2022-09-09T05:57:22;16.77;;;15.68;;
46339;SDS011;47273;49.274;8.708;2022-09-09T05:59:47;17.00;;;15.90;;
46339;SDS011;47273;49.274;8.708;2022-09-09T06:02:13;16.83;;;15.40;;
46339;SDS011;47273;49.274;8.708;2022-09-09T06:04:39;16.48;;;15.30;;
46339;SDS011;47273;49.274;8.708;2022-09-09T06:07:05;17.52;;;16.00;;
46339;SDS011;47273;49.274;8.708;2022-09-09T06:09:30;17.55;;;16.10;;
46339;SDS011;47273;49.274;8.708;2022-09-09T06:11:59;17.33;;;15.85;;
46339;SDS011;47273;49.274;8.708;2022-09-09T06:14:25;16.40;;;15.40;;
46339;SDS011;47273;49.274;8.708;2022-09-09T06:16:52;16.02;;;14.88;;
46339;SDS011;47273;49.274;8.708;2022-09-09T06:19:17;18.02;;;16.25;;
46339;SDS011;47273;49.274;8.708;2022-09-09T06:21:45;17.13;;;15.88;;
46339;SDS011;47273;49.274;8.708;2022-09-09T06:24:12;17.05;;;15.95;;
46339;SDS011;47273;49.274;8.708;2022-09-09T06:26:42;17.30;;;16.20;;
46339;SDS011;47273;49.274;8.708;2022-09-09T06:29:08;17.98;;;16.38;;
46339;SDS011;47273;49.274;8.708;2022-09-09T06:31:35;17.67;;;16.20;;
46339;SDS011;47273;49.274;8.708;2022-09-09T06:34:02;17.05;;;15.90;;
46339;SDS011;47273;49.274;8.708;2022-09-09T06:36:30;19.30;;;16.85;;
46339;SDS011;47273;49.274;8.708;2022-09-09T06:38:58;17.13;;;15.85;;
46339;SDS011;47273;49.274;8.708;2022-09-09T06:41:26;16.63;;;15.43;;
46339;SDS011;47273;49.274;8.708;2022-09-09T06:43:56;16.92;;;15.57;;
46339;SDS011;47273;49.274;8.708;2022-09-09T06:46:23;17.40;;;16.05;;
46339;SDS011;47273;49.274;8.708;2022-09-09T06:48:52;16.70;;;15.48;;
46339;SDS011;47273;49.274;8.708;2022-09-09T06:51:24;16.75;;;15.50;;
46339;SDS011;47273;49.274;8.708;2022-09-09T06:53:54;16.88;;;15.65;;
46339;SDS011;47273;49.274;8.708;2022-09-09T06:58:51;16.92;;;15.75;;
46339;SDS011;47273;49.274;8.708;2022-09-09T07:01:19;16.85;;;15.55;;
46339;SDS011;47273;49.274;8.708;2022-09-09T07:03:50;17.30;;;15.75;;
46339;SDS011;47273;49.274;8.708;2022-09-09T07:06:24;17.05;;;15.70;;
46339;SDS011;47273;49.274;8.708;2022-09-09T07:08:55;17.25;;;15.95;;
46339;SDS011;47273;49.274;8.708;2022-09-09T07:11:23;17.40;;;16.17;;
46339;SDS011;47273;49.274;8.708;2022-09-09T07:13:52;16.77;;;15.25;;
46339;SDS011;47273;49.274;8.708;2022-09-09T07:16:19;17.05;;;15.55;;
46339;SDS011;47273;49.274;8.708;2022-09-09T07:18:48;17.20;;;15.65;;
46339;SDS011;47273;49.274;8.708;2022-09-09T07:21:17;18.17;;;16.48;;
46339;SDS011;47273;49.274;8.708;2022-09-09T07:23:44;17.65;;;16.13;;
46339;SDS011;47273;49.274;8.708;2022-09-09T07:26:14;18.05;;;16.50;;
46339;SDS011;47273;49.274;8.708;2022-09-09T07:28:42;17.08;;;15.63;;
46339;SDS011;47273;49.274;8.708;2022-09-09T07:31:12;17.30;;;15.80;;
46339;SDS011;47273;49.274;8.708;2022-09-09T07:33:46;17.42;;;15.90;;
46339;SDS011;47273;49.274;8.708;2022-09-09T07:36:14;18.27;;;16.52;;
46339;SDS011;47273;49.274;8.708;2022-09-09T07:38:49;17.63;;;16.42;;
46339;SDS011;47273;49.274;8.708;2022-09-09T07:41:36;18.17;;;16.40;;
46339;SDS011;47273;49.274;8.708;2022-09-09T07:44:07;17.55;;;16.15;;
46339;SDS011;47273;49.274;8.708;2022-09-09T07:46:36;17.40;;;16.10;;
46339;SDS011;47273;49.274;8.708;2022-09-09T07:49:07;17.63;;;16.23;;
46339;SDS011;47273;49.274;8.708;2022-09-09T07:51:35;17.48;;;15.95;;
46339;SDS011;47273;49.274;8.708;2022-09-09T07:54:03;19.25;;;17.60;;
46339;SDS011;47273;49.274;8.708;2022-09-09T07:56:31;17.90;;;16.50;;
46339;SDS011;47273;49.274;8.708;2022-09-09T07:58:59;17.35;;;15.88;;
46339;SDS011;47273;49.274;8.708;2022-09-09T08:01:30;17.65;;;16.08;;
46339;SDS011;47273;49.274;8.708;2022-09-09T08:04:04;17.48;;;15.90;;
46339;SDS011;47273;49.274;8.708;2022-09-09T08:09:04;17.80;;;16.02;;
46339;SDS011;47273;49.274;8.708;2022-09-09T08:11:46;17.90;;;16.45;;
46339;SDS011;47273;49.274;8.708;2022-09-09T08:14:12;17.65;;;16.15;;
46339;SDS011;47273;49.274;8.708;2022-09-09T08:16:39;17.55;;;15.98;;
46339;SDS011;47273;49.274;8.708;2022-09-09T08:19:09;17.52;;;16.33;;
46339;SDS011;47273;49.274;8.708;2022-09-09T08:21:35;20.63;;;16.45;;
46339;SDS011;47273;49.274;8.708;2022-09-09T08:24:03;17.70;;;16.20;;
46339;SDS011;47273;49.274;8.708;2022-09-09T08:26:34;18.20;;;16.60;;
46339;SDS011;47273;49.274;8.708;2022-09-09T08:29:03;17.88;;;16.35;;
46339;SDS011;47273;49.274;8.708;2022-09-09T08:31:36;17.88;;;16.48;;
46339;SDS011;47273;49.274;8.708;2022-09-09T08:34:06;19.52;;;17.33;;
46339;SDS011;47273;49.274;8.708;2022-09-09T08:36:33;19.10;;;17.10;;
46339;SDS011;47273;49.274;8.708;2022-09-09T08:39:10;17.65;;;16.27;;
46339;SDS011;47273;49.274;8.708;2022-09-09T08:44:26;18.88;;;17.05;;
46339;SDS011;47273;49.274;8.708;2022-09-09T08:52:00;17.50;;;16.10;;
46339;SDS011;47273;49.274;8.708;2022-09-09T08:54:27;17.58;;;16.00;;
46339;SDS011;47273;49.274;8.708;2022-09-09T08:57:03;17.73;;;15.82;;
46339;SDS011;47273;49.274;8.708;2022-09-09T08:59:42;18.45;;;16.70;;
46339;SDS011;47273;49.274;8.708;2022-09-09T09:02:14;17.33;;;16.02;;
46339;SDS011;47273;49.274;8.708;2022-09-09T09:05:23;17.70;;;16.30;;
46339;SDS011;47273;49.274;8.708;2022-09-09T09:11:46;18.42;;;16.75;;
46339;SDS011;47273;49.274;8.708;2022-09-09T09:14:26;18.15;;;16.65;;
46339;SDS011;47273;49.274;8.708;2022-09-09T09:19:32;17.90;;;16.42;;
46339;SDS011;47273;49.274;8.708;2022-09-09T09:27:32;18.13;;;16.33;;
46339;SDS011;47273;49.274;8.708;2022-09-09T09:30:23;17.58;;;16.27;;
46339;SDS011;47273;49.274;8.708;2022-09-09T09:33:00;17.42;;;15.65;;
46339;SDS011;47273;49.274;8.708;2022-09-09T09:35:29;17.10;;;15.68;;
46339;SDS011;47273;49.274;8.708;2022-09-09T09:37:55;17.67;;;16.20;;
46339;SDS011;47273;49.274;8.708;2022-09-09T09:40:21;16.98;;;15.60;;
46339;SDS011;47273;49.274;8.708;2022-09-09T09:42:52;17.00;;;15.90;;
46339;SDS011;47273;49.274;8.708;2022-09-09T09:45:25;18.10;;;16.70;;
46339;SDS011;47273;49.274;8.708;2022-09-09T09:48:01;17.58;;;16.15;;
46339;SDS011;47273;49.274;8.708;2022-09-09T09:50:29;18.13;;;16.25;;
46339;SDS011;47273;49.274;8.708;2022-09-09T09:53:00;18.13;;;16.55;;
46339;SDS011;47273;49.274;8.708;2022-09-09T09:55:29;17.33;;;16.13;;
46339;SDS011;47273;49.274;8.708;2022-09-09T09:58:14;17.77;;;16.17;;
46339;SDS011;47273;49.274;8.708;2022-09-09T10:00:47;17.10;;;15.90;;
46339;SDS011;47273;49.274;8.708;2022-09-09T10:03:19;21.33;;;16.50;;
46339;SDS011;47273;49.274;8.708;2022-09-09T10:06:06;17.13;;;15.90;;
46339;SDS011;47273;49.274;8.708;2022-09-09T10:08:33;17.40;;;16.00;;
46339;SDS011;47273;49.274;8.708;2022-09-09T10:16:43;17.55;;;16.05;;
46339;SDS011;47273;49.274;8.708;2022-09-09T10:19:31;17.23;;;15.90;;
46339;SDS011;47273;49.274;8.708;2022-09-09T10:22:02;17.17;;;16.00;;
46339;SDS011;47273;49.274;8.708;2022-09-09T10:30:19;17.35;;;15.88;;
46339;SDS011;47273;49.274;8.708;2022-09-09T10:32:49;15.98;;;14.63;;
46339;SDS011;47273;49.274;8.708;2022-09-09T10:38:14;16.15;;;14.90;;
46339;SDS011;47273;49.274;8.708;2022-09-09T10:47:09;17.70;;;16.40;;
46339;SDS011;47273;49.274;8.708;2022-09-09T10:52:37;17.97;;;16.43;;
46339;SDS011;47273;49.274;8.708;2022-09-09T10:58:11;17.60;;;16.35;;
46339;SDS011;47273;49.274;8.708;2022-09-09T11:00:50;17.98;;;16.35;;
46339;SDS011;47273;49.274;8.708;2022-09-09T11:03:20;17.45;;;16.15;;
46339;SDS011;47273;49.274;8.708;2022-09-09T11:05:51;18.35;;;16.65;;
46339;SDS011;47273;49.274;8.708;2022-09-09T11:08:23;17.88;;;16.60;;
46339;SDS011;47273;49.274;8.708;2022-09-09T11:11:02;17.70;;;16.35;;
46339;SDS011;47273;49.274;8.708;2022-09-09T11:19:04;17.85;;;16.38;;
46339;SDS011;47273;49.274;8.708;2022-09-09T11:21:45;18.05;;;16.40;;
46339;SDS011;47273;49.274;8.708;2022-09-09T11:38:44;18.33;;;16.98;;
46339;SDS011;47273;49.274;8.708;2022-09-09T11:41:32;17.67;;;16.30;;
46339;SDS011;47273;49.274;8.708;2022-09-09T11:44:08;18.33;;;16.55;;
46339;SDS011;47273;49.274;8.708;2022-09-09T11:46:37;17.60;;;16.20;;
46339;SDS011;47273;49.274;8.708;2022-09-09T11:49:05;17.70;;;16.17;;
46339;SDS011;47273;49.274;8.708;2022-09-09T11:51:50;18.08;;;16.63;;
46339;SDS011;47273;49.274;8.708;2022-09-09T11:54:32;17.02;;;15.82;;
46339;SDS011;47273;49.274;8.708;2022-09-09T12:03:05;18.30;;;16.65;;
46339;SDS011;47273;49.274;8.708;2022-09-09T12:06:13;18.25;;;16.70;;
46339;SDS011;47273;49.274;8.708;2022-09-09T12:08:53;17.80;;;16.50;;
46339;SDS011;47273;49.274;8.708;2022-09-09T12:11:24;19.15;;;17.30;;
46339;SDS011;47273;49.274;8.708;2022-09-09T12:14:34;17.75;;;16.42;;
46339;SDS011;47273;49.274;8.708;2022-09-09T12:17:20;17.75;;;16.45;;
46339;SDS011;47273;49.274;8.708;2022-09-09T12:19:48;17.35;;;16.25;;
46339;SDS011;47273;49.274;8.708;2022-09-09T12:28:01;17.20;;;15.90;;
46339;SDS011;47273;49.274;8.708;2022-09-09T12:34:02;17.25;;;15.85;;
46339;SDS011;47273;49.274;8.708;2022-09-09T12:37:02;16.88;;;15.55;;
46339;SDS011;47273;49.274;8.708;2022-09-09T12:39:45;17.55;;;16.00;;
46339;SDS011;47273;49.274;8.708;2022-09-09T12:42:22;16.63;;;15.52;;
46339;SDS011;47273;49.274;8.708;2022-09-09T12:47:17;17.38;;;16.02;;
46339;SDS011;47273;49.274;8.708;2022-09-09T12:49:45;16.90;;;15.60;;
46339;SDS011;47273;49.274;8.708;2022-09-09T12:52:33;17.17;;;15.60;;
46339;SDS011;47273;49.274;8.708;2022-09-09T12:55:03;17.00;;;15.57;;
46339;SDS011;47273;49.274;8.708;2022-09-09T12:57:35;17.33;;;15.70;;
46339;SDS011;47273;49.274;8.708;2022-09-09T13:00:07;16.92;;;15.60;;
46339;SDS011;47273;49.274;8.708;2022-09-09T13:02:51;17.35;;;15.93;;
46339;SDS011;47273;49.274;8.708;2022-09-09T13:08:07;17.13;;;15.82;;
46339;SDS011;47273;49.274;8.708;2022-09-09T13:10:39;16.95;;;15.60;;
46339;SDS011;47273;49.274;8.708;2022-09-09T13:13:20;17.02;;;15.80;;
46339;SDS011;47273;49.274;8.708;2022-09-09T13:15:52;17.10;;;15.73;;
46339;SDS011;47273;49.274;8.708;2022-09-09T13:18:21;16.20;;;15.10;;
46339;SDS011;47273;49.274;8.708;2022-09-09T13:20:49;16.02;;;15.02;;
46339;SDS011;47273;49.274;8.708;2022-09-09T13:23:17;16.58;;;15.30;;
46339;SDS011;47273;49.274;8.708;2022-09-09T13:26:00;16.05;;;14.88;;
46339;SDS011;47273;49.274;8.708;2022-09-09T13:28:29;16.65;;;15.05;;
46339;SDS011;47273;49.274;8.708;2022-09-09T13:30:57;17.02;;;15.23;;
46339;SDS011;47273;49.274;8.708;2022-09-09T13:33:38;16.50;;;15.30;;
46339;SDS011;47273;49.274;8.708;2022-09-09T13:36:14;16.02;;;14.73;;
46339;SDS011;47273;49.274;8.708;2022-09-09T13:41:24;15.73;;;14.68;;
46339;SDS011;47273;49.274;8.708;2022-09-09T13:44:28;16.42;;;14.90;;
46339;SDS011;47273;49.274;8.708;2022-09-09T13:47:39;16.15;;;15.00;;
46339;SDS011;47273;49.274;8.708;2022-09-09T13:49:51;16.30;;;14.85;;
46339;SDS011;47273;49.274;8.708;2022-09-09T13:52:30;15.70;;;14.73;;
46339;SDS011;47273;49.274;8.708;2022-09-09T13:54:56;15.70;;;14.65;;
46339;SDS011;47273;49.274;8.708;2022-09-09T13:57:23;16.20;;;14.90;;
46339;SDS011;47273;49.274;8.708;2022-09-09T13:59:50;15.82;;;14.52;;
46339;SDS011;47273;49.274;8.708;2022-09-09T14:02:17;16.33;;;14.95;;
46339;SDS011;47273;49.274;8.708;2022-09-09T14:04:44;16.63;;;15.50;;
46339;SDS011;47273;49.274;8.708;2022-09-09T14:07:13;16.23;;;15.10;;
46339;SDS011;47273;49.274;8.708;2022-09-09T14:09:40;16.58;;;15.05;;
46339;SDS011;47273;49.274;8.708;2022-09-09T14:12:12;16.58;;;15.50;;
46339;SDS011;47273;49.274;8.708;2022-09-09T14:14:42;17.30;;;15.90;;
46339;SDS011;47273;49.274;8.708;2022-09-09T14:17:08;16.75;;;15.60;;
46339;SDS011;47273;49.274;8.708;2022-09-09T14:19:34;16.67;;;15.48;;
46339;SDS011;47273;49.274;8.708;2022-09-09T14:22:03;16.10;;;15.00;;
46339;SDS011;47273;49.274;8.708;2022-09-09T14:24:28;16.65;;;15.55;;
46339;SDS011;47273;49.274;8.708;2022-09-09T14:26:58;16.33;;;15.02;;
46339;SDS011;47273;49.274;8.708;2022-09-09T14:29:29;16.13;;;15.13;;
46339;SDS011;47273;49.274;8.708;2022-09-09T14:31:54;16.42;;;15.10;;
46339;SDS011;47273;49.274;8.708;2022-09-09T14:34:20;16.73;;;15.32;;
46339;SDS011;47273;49.274;8.708;2022-09-09T14:36:46;16.95;;;15.65;;
46339;SDS011;47273;49.274;8.708;2022-09-09T14:39:12;16.40;;;15.30;;
46339;SDS011;47273;49.274;8.708;2022-09-09T14:41:38;16.70;;;15.30;;
46339;SDS011;47273;49.274;8.708;2022-09-09T14:44:04;16.17;;;15.07;;
46339;SDS011;47273;49.274;8.708;2022-09-09T14:46:33;16.60;;;15.20;;
46339;SDS011;47273;49.274;8.708;2022-09-09T14:49:02;16.25;;;15.07;;
46339;SDS011;47273;49.274;8.708;2022-09-09T14:51:28;16.02;;;15.02;;
46339;SDS011;47273;49.274;8.708;2022-09-09T14:53:58;16.08;;;14.85;;
46339;SDS011;47273;49.274;8.708;2022-09-09T14:56:29;16.70;;;15.40;;
46339;SDS011;47273;49.274;8.708;2022-09-09T14:58:57;16.48;;;15.27;;
46339;SDS011;47273;49.274;8.708;2022-09-09T15:01:24;16.20;;;15.02;;
46339;SDS011;47273;49.274;8.708;2022-09-09T15:03:59;16.38;;;15.27;;
46339;SDS011;47273;49.274;8.708;2022-09-09T15:06:28;16.40;;;15.30;;
46339;SDS011;47273;49.274;8.708;2022-09-09T15:08:55;17.33;;;15.90;;
46339;SDS011;47273;49.274;8.708;2022-09-09T15:11:26;16.10;;;14.88;;
46339;SDS011;47273;49.274;8.708;2022-09-09T15:13:55;16.17;;;14.90;;
46339;SDS011;47273;49.274;8.708;2022-09-09T15:16:27;15.90;;;14.90;;
46339;SDS011;47273;49.274;8.708;2022-09-09T15:18:54;16.25;;;14.77;;
46339;SDS011;47273;49.274;8.708;2022-09-09T15:21:22;16.25;;;15.13;;
46339;SDS011;47273;49.274;8.708;2022-09-09T15:23:50;16.17;;;14.85;;
46339;SDS011;47273;49.274;8.708;2022-09-09T15:26:16;16.10;;;14.73;;
46339;SDS011;47273;49.274;8.708;2022-09-09T15:28:43;15.90;;;14.80;;
46339;SDS011;47273;49.274;8.708;2022-09-09T15:33:41;16.10;;;14.90;;
46339;SDS011;47273;49.274;8.708;2022-09-09T15:36:19;16.58;;;15.13;;
46339;SDS011;47273;49.274;8.708;2022-09-09T15:38:46;15.57;;;14.48;;
46339;SDS011;47273;49.274;8.708;2022-09-09T15:41:13;15.52;;;14.52;;
46339;SDS011;47273;49.274;8.708;2022-09-09T15:43:42;16.35;;;15.05;;
46339;SDS011;47273;49.274;8.708;2022-09-09T15:48:52;15.98;;;14.85;;
46339;SDS011;47273;49.274;8.708;2022-09-09T15:51:20;15.93;;;14.93;;
46339;SDS011;47273;49.274;8.708;2022-09-09T15:53:54;16.17;;;15.18;;
46339;SDS011;47273;49.274;8.708;2022-09-09T15:56:27;16.50;;;15.10;;
46339;SDS011;47273;49.274;8.708;2022-09-09T15:59:30;15.27;;;14.27;;
46339;SDS011;47273;49.274;8.708;2022-09-09T16:02:47;15.88;;;14.80;;
46339;SDS011;47273;49.274;8.708;2022-09-09T16:05:20;15.32;;;14.32;;
46339;SDS011;47273;49.274;8.708;2022-09-09T16:07:46;14.90;;;14.00;;
46339;SDS011;47273;49.274;8.708;2022-09-09T16:10:12;15.38;;;14.13;;
46339;SDS011;47273;49.274;8.708;2022-09-09T16:12:38;14.93;;;14.02;;
46339;SDS011;47273;49.274;8.708;2022-09-09T16:15:04;15.18;;;14.18;;
46339;SDS011;47273;49.274;8.708;2022-09-09T16:17:31;15.63;;;14.52;;
46339;SDS011;47273;49.274;8.708;2022-09-09T16:20:02;15.25;;;14.30;;
46339;SDS011;47273;49.274;8.708;2022-09-09T16:22:30;15.38;;;14.30;;
46339;SDS011;47273;49.274;8.708;2022-09-09T16:24:55;15.35;;;14.35;;
46339;SDS011;47273;49.274;8.708;2022-09-09T16:27:24;15.85;;;14.75;;
46339;SDS011;47273;49.274;8.708;2022-09-09T16:29:50;15.38;;;14.32;;
46339;SDS011;47273;49.274;8.708;2022-09-09T16:32:16;15.77;;;14.52;;
46339;SDS011;47273;49.274;8.708;2022-09-09T16:34:41;15.68;;;14.57;;
46339;SDS011;47273;49.274;8.708;2022-09-09T16:37:08;15.90;;;14.80;;
46339;SDS011;47273;49.274;8.708;2022-09-09T16:39:33;15.02;;;14.02;;
46339;SDS011;47273;49.274;8.708;2022-09-09T16:41:59;15.70;;;14.60;;
46339;SDS011;47273;49.274;8.708;2022-09-09T16:44:24;15.63;;;14.23;;
46339;SDS011;47273;49.274;8.708;2022-09-09T16:46:51;15.88;;;14.77;;
46339;SDS011;47273;49.274;8.708;2022-09-09T16:49:19;16.67;;;15.50;;
46339;SDS011;47273;49.274;8.708;2022-09-09T16:51:46;16.98;;;15.52;;
46339;SDS011;47273;49.274;8.708;2022-09-09T16:54:14;17.17;;;15.73;;
46339;SDS011;47273;49.274;8.708;2022-09-09T16:56:42;16.52;;;15.32;;
46339;SDS011;47273;49.274;8.708;2022-09-09T16:59:11;16.77;;;15.18;;
46339;SDS011;47273;49.274;8.708;2022-09-09T17:01:46;16.30;;;15.30;;
46339;SDS011;47273;49.274;8.708;2022-09-09T17:04:18;17.45;;;16.00;;
46339;SDS011;47273;49.274;8.708;2022-09-09T17:06:49;16.58;;;15.25;;
46339;SDS011;47273;49.274;8.708;2022-09-09T17:09:16;15.52;;;14.55;;
46339;SDS011;47273;49.274;8.708;2022-09-09T17:11:43;15.80;;;14.50;;
46339;SDS011;47273;49.274;8.708;2022-09-09T17:14:11;16.38;;;15.05;;
46339;SDS011;47273;49.274;8.708;2022-09-09T17:16:39;16.67;;;15.40;;
46339;SDS011;47273;49.274;8.708;2022-09-09T17:19:08;16.70;;;15.30;;
46339;SDS011;47273;49.274;8.708;2022-09-09T17:21:38;15.90;;;14.90;;
46339;SDS011;47273;49.274;8.708;2022-09-09T17:24:04;16.40;;;15.20;;
46339;SDS011;47273;49.274;8.708;2022-09-09T17:26:30;17.00;;;15.77;;
46339;SDS011;47273;49.274;8.708;2022-09-09T17:28:58;17.08;;;15.30;;
46339;SDS011;47273;49.274;8.708;2022-09-09T17:31:25;16.80;;;15.68;;
46339;SDS011;47273;49.274;8.708;2022-09-09T17:34:01;16.85;;;15.65;;
46339;SDS011;47273;49.274;8.708;2022-09-09T17:36:34;16.30;;;15.30;;
46339;SDS011;47273;49.274;8.708;2022-09-09T17:39:02;16.92;;;15.57;;
46339;SDS011;47273;49.274;8.708;2022-09-09T17:41:33;16.30;;;15.05;;
46339;SDS011;47273;49.274;8.708;2022-09-09T17:44:04;17.23;;;15.57;;
46339;SDS011;47273;49.274;8.708;2022-09-09T17:46:39;16.33;;;15.23;;
46339;SDS011;47273;49.274;8.708;2022-09-09T17:49:11;16.65;;;15.50;;
46339;SDS011;47273;49.274;8.708;2022-09-09T17:51:38;17.63;;;16.33;;
46339;SDS011;47273;49.274;8.708;2022-09-09T17:54:16;16.67;;;15.32;;
46339;SDS011;47273;49.274;8.708;2022-09-09T17:56:44;16.50;;;15.32;;
46339;SDS011;47273;49.274;8.708;2022-09-09T17:59:12;17.02;;;15.70;;
46339;SDS011;47273;49.274;8.708;2022-09-09T18:01:40;16.25;;;14.95;;
46339;SDS011;47273;49.274;8.708;2022-09-09T18:04:11;15.70;;;14.57;;
46339;SDS011;47273;49.274;8.708;2022-09-09T18:06:44;16.15;;;15.00;;
46339;SDS011;47273;49.274;8.708;2022-09-09T18:09:14;15.50;;;14.50;;
46339;SDS011;47273;49.274;8.708;2022-09-09T18:11:43;15.95;;;14.52;;
46339;SDS011;47273;49.274;8.708;2022-09-09T18:14:11;15.80;;;14.70;;
46339;SDS011;47273;49.274;8.708;2022-09-09T18:16:49;16.08;;;14.77;;
46339;SDS011;47273;49.274;8.708;2022-09-09T18:19:17;15.60;;;14.50;;
46339;SDS011;47273;49.274;8.708;2022-09-09T18:21:45;15.23;;;14.15;;
46339;SDS011;47273;49.274;8.708;2022-09-09T18:24:13;15.35;;;14.32;;
46339;SDS011;47273;49.274;8.708;2022-09-09T18:26:41;15.27;;;14.18;;
46339;SDS011;47273;49.274;8.708;2022-09-09T18:29:09;15.05;;;13.73;;
46339;SDS011;47273;49.274;8.708;2022-09-09T18:31:37;14.80;;;13.80;;
46339;SDS011;47273;49.274;8.708;2022-09-09T18:34:04;15.45;;;14.30;;
46339;SDS011;47273;49.274;8.708;2022-09-09T18:36:32;17.05;;;15.85;;
46339;SDS011;47273;49.274;8.708;2022-09-09T18:39:03;16.60;;;15.00;;
46339;SDS011;47273;49.274;8.708;2022-09-09T18:41:30;15.85;;;14.70;;
46339;SDS011;47273;49.274;8.708;2022-09-09T18:44:11;15.13;;;14.02;;
46339;SDS011;47273;49.274;8.708;2022-09-09T18:46:40;15.13;;;14.07;;
46339;SDS011;47273;49.274;8.708;2022-09-09T18:49:06;16.00;;;15.00;;
46339;SDS011;47273;49.274;8.708;2022-09-09T18:51:33;21.60;;;15.05;;
46339;SDS011;47273;49.274;8.708;2022-09-09T18:54:02;16.08;;;14.88;;
46339;SDS011;47273;49.274;8.708;2022-09-09T18:56:32;15.80;;;14.68;;
46339;SDS011;47273;49.274;8.708;2022-09-09T18:58:59;15.88;;;14.52;;
46339;SDS011;47273;49.274;8.708;2022-09-09T19:01:26;16.33;;;15.13;;
46339;SDS011;47273;49.274;8.708;2022-09-09T19:03:53;15.93;;;14.75;;
46339;SDS011;47273;49.274;8.708;2022-09-09T19:06:21;16.75;;;15.45;;
46339;SDS011;47273;49.274;8.708;2022-09-09T19:08:48;16.52;;;15.32;;
46339;SDS011;47273;49.274;8.708;2022-09-09T19:11:16;15.68;;;14.68;;
46339;SDS011;47273;49.274;8.708;2022-09-09T19:13:43;17.73;;;16.27;;
46339;SDS011;47273;49.274;8.708;2022-09-09T19:16:15;17.27;;;15.63;;
46339;SDS011;47273;49.274;8.708;2022-09-09T19:18:41;16.85;;;15.32;;
46339;SDS011;47273;49.274;8.708;2022-09-09T19:23:47;16.20;;;15.05;;
46339;SDS011;47273;49.274;8.708;2022-09-09T19:26:33;15.55;;;14.50;;
46339;SDS011;47273;49.274;8.708;2022-09-09T19:29:08;15.60;;;14.50;;
46339;SDS011;47273;49.274;8.708;2022-09-09T19:31:41;15.07;;;14.02;;
46339;SDS011;47273;49.274;8.708;2022-09-09T19:34:11;15.80;;;14.60;;
46339;SDS011;47273;49.274;8.708;2022-09-09T19:36:37;15.98;;;14.60;;
46339;SDS011;47273;49.274;8.708;2022-09-09T19:39:04;16.15;;;15.00;;
46339;SDS011;47273;49.274;8.708;2022-09-09T19:41:31;16.27;;;14.98;;
46339;SDS011;47273;49.274;8.708;2022-09-09T19:43:59;16.30;;;15.10;;
46339;SDS011;47273;49.274;8.708;2022-09-09T19:46:30;16.95;;;15.40;;
46339;SDS011;47273;49.274;8.708;2022-09-09T19:48:57;16.08;;;14.90;;
46339;SDS011;47273;49.274;8.708;2022-09-09T19:51:25;16.15;;;14.85;;
46339;SDS011;47273;49.274;8.708;2022-09-09T19:53:54;15.77;;;14.50;;
46339;SDS011;47273;49.274;8.708;2022-09-09T19:56:27;15.70;;;14.35;;